Time;durP1;ratioP1;P1;durP2;ratioP2;P2;SDS_P1;SDS_P2;PMS_P1;PMS_P2;Temp;Humidity;BMP_temperature;BMP_pressure;BME280_temperature;BME280_humidity;BME280_pressure;Samples;Min_cycle;Max_cycle;Signal;HPM_P1;HPM_P2
2024/03/09 00:00:09;;;;;;;21.20;19.40;;;9.80;17.20;;;;;;4980282;28;20533;-79
2024/03/09 00:02:36;;;;;;;21.43;19.83;;;9.80;17.10;;;;;;4997023;28;20488;-78
2024/03/09 00:05:06;;;;;;;23.37;21.57;;;9.80;17.00;;;;;;4989770;28;20810;-78
2024/03/09 00:07:32;;;;;;;21.90;20.30;;;9.80;17.10;;;;;;4990277;28;20445;-78
2024/03/09 00:09:58;;;;;;;20.10;18.67;;;9.80;16.90;;;;;;4991256;28;20460;-78
2024/03/09 00:12:23;;;;;;;21.97;20.27;;;9.40;17.90;;;;;;4991298;28;20438;-78
2024/03/09 00:14:49;;;;;;;20.90;19.10;;;9.30;18.30;;;;;;4993465;28;20252;-78
2024/03/09 00:17:16;;;;;;;19.67;18.27;;;9.20;18.80;;;;;;4984192;28;20249;-77
2024/03/09 00:19:42;;;;;;;21.93;20.33;;;9.10;18.80;;;;;;4990639;28;20214;-77
2024/03/09 00:22:09;;;;;;;22.77;21.07;;;9.10;19.00;;;;;;4996648;28;20421;-79
2024/03/09 00:24:34;;;;;;;22.03;20.20;;;9.20;19.00;;;;;;4996516;28;20536;-77
2024/03/09 00:27:00;;;;;;;19.33;17.93;;;9.30;18.60;;;;;;4998785;28;20553;-78
2024/03/09 00:29:27;;;;;;;20.03;18.53;;;9.30;18.50;;;;;;4997667;28;20214;-78
2024/03/09 00:31:53;;;;;;;20.23;18.67;;;9.20;18.80;;;;;;4985056;28;20186;-78
2024/03/09 00:34:19;;;;;;;20.93;19.33;;;9.20;19.10;;;;;;4984776;28;20437;-78
2024/03/09 00:36:46;;;;;;;23.60;21.70;;;9.30;18.90;;;;;;4989879;28;20186;-77
2024/03/09 00:39:13;;;;;;;20.10;18.60;;;9.40;18.60;;;;;;4987185;28;20461;-78
2024/03/09 00:41:42;;;;;;;19.73;18.30;;;9.50;18.40;;;;;;4988601;28;20472;-78
2024/03/09 00:44:09;;;;;;;19.83;18.37;;;9.50;18.40;;;;;;4988556;28;20442;-78
2024/03/09 00:46:36;;;;;;;19.70;18.30;;;9.50;18.50;;;;;;4991316;28;20480;-78
2024/03/09 00:49:02;;;;;;;20.87;19.37;;;9.50;18.10;;;;;;4992213;28;20457;-79
2024/03/09 00:51:30;;;;;;;19.27;17.93;;;9.60;18.40;;;;;;4998555;28;20417;-78
2024/03/09 00:53:56;;;;;;;20.20;18.70;;;9.60;18.40;;;;;;4997781;28;20449;-78
2024/03/09 00:56:22;;;;;;;20.50;19.00;;;9.60;18.00;;;;;;4998825;28;20436;-78
2024/03/09 00:58:48;;;;;;;20.67;18.97;;;9.70;17.90;;;;;;5000909;28;20449;-77
2024/03/09 01:01:14;;;;;;;19.87;18.33;;;9.80;17.80;;;;;;5001649;28;20431;-78
2024/03/09 01:03:39;;;;;;;20.63;19.10;;;9.70;17.80;;;;;;4998836;28;20421;-78
2024/03/09 01:06:05;;;;;;;21.40;19.50;;;9.70;18.20;;;;;;5004999;28;20218;-77
2024/03/09 01:08:31;;;;;;;20.70;19.03;;;9.50;18.20;;;;;;4995029;28;20214;-77
2024/03/09 01:10:57;;;;;;;19.77;18.27;;;9.60;18.20;;;;;;4980874;28;20187;-77
2024/03/09 01:13:22;;;;;;;19.93;18.47;;;9.60;17.80;;;;;;4984176;28;20479;-78
2024/03/09 01:15:51;;;;;;;21.37;19.67;;;9.70;17.50;;;;;;4983970;28;20533;-78
2024/03/09 01:18:17;;;;;;;20.30;18.90;;;9.70;17.10;;;;;;4984501;28;20194;-79
2024/03/09 01:20:43;;;;;;;20.50;18.90;;;9.60;17.50;;;;;;4980445;28;20470;-78
2024/03/09 01:23:09;;;;;;;20.53;19.10;;;9.60;17.40;;;;;;4979965;28;20996;-78
2024/03/09 01:25:35;;;;;;;20.17;18.57;;;9.70;17.10;;;;;;4980151;28;20211;-78
2024/03/09 01:28:00;;;;;;;18.80;17.40;;;9.80;17.20;;;;;;4979513;28;20442;-78
2024/03/09 01:30:26;;;;;;;19.47;17.87;;;9.80;17.40;;;;;;4979462;28;20234;-79
2024/03/09 01:32:52;;;;;;;18.07;16.70;;;9.70;17.40;;;;;;4979251;28;20187;-78
2024/03/09 01:35:17;;;;;;;21.47;19.87;;;9.70;17.60;;;;;;4979519;28;20191;-79
2024/03/09 01:37:43;;;;;;;19.43;18.03;;;9.70;17.50;;;;;;4980275;28;20198;-78
2024/03/09 01:40:10;;;;;;;19.37;18.07;;;9.70;17.40;;;;;;4979377;28;20282;-79
2024/03/09 01:42:35;;;;;;;19.67;18.07;;;9.70;17.90;;;;;;4979988;28;20281;-79
2024/03/09 01:45:04;;;;;;;19.63;18.13;;;9.70;17.40;;;;;;4980668;28;20458;-79
2024/03/09 01:47:30;;;;;;;18.50;17.10;;;9.70;17.50;;;;;;4980628;28;20225;-78
2024/03/09 01:49:57;;;;;;;18.97;17.47;;;9.70;17.90;;;;;;4980988;28;20450;-78
2024/03/09 01:52:25;;;;;;;17.90;16.50;;;9.70;17.40;;;;;;4979824;28;20655;-79
2024/03/09 01:54:54;;;;;;;20.27;18.70;;;9.70;17.30;;;;;;4988225;28;20418;-79
2024/03/09 01:57:20;;;;;;;19.93;18.43;;;9.70;17.20;;;;;;4980951;28;20426;-78
2024/03/09 01:59:54;;;;;;;19.90;18.50;;;9.70;17.20;;;;;;4980532;28;21008;-78
2024/03/09 02:02:22;;;;;;;20.00;18.60;;;9.70;17.40;;;;;;4979353;28;20425;-79
2024/03/09 02:04:48;;;;;;;19.77;18.47;;;9.60;17.60;;;;;;4980862;28;20493;-79
2024/03/09 02:07:16;;;;;;;19.30;17.90;;;9.40;18.20;;;;;;4980774;28;20508;-79
2024/03/09 02:09:43;;;;;;;20.87;19.20;;;9.20;18.60;;;;;;4980810;28;20981;-78
2024/03/09 02:12:10;;;;;;;24.13;21.87;;;9.10;18.90;;;;;;4978693;28;20498;-79
2024/03/09 02:14:38;;;;;;;22.30;20.70;;;9.00;19.20;;;;;;4980612;28;20449;-78
2024/03/09 02:17:13;;;;;;;19.67;18.20;;;9.00;19.20;;;;;;4980797;28;20506;-79
2024/03/09 02:19:40;;;;;;;21.53;20.00;;;8.70;19.80;;;;;;4986333;28;20469;-79
2024/03/09 02:22:08;;;;;;;20.60;18.93;;;8.50;20.30;;;;;;4978081;28;20446;-78
2024/03/09 02:24:40;;;;;;;20.10;18.60;;;8.50;20.40;;;;;;4981655;28;20421;-78
2024/03/09 02:27:07;;;;;;;18.83;17.43;;;8.40;20.70;;;;;;4986990;28;20876;-79
2024/03/09 02:29:33;;;;;;;19.23;17.77;;;8.30;20.90;;;;;;4978824;28;20450;-79
2024/03/09 02:31:59;;;;;;;20.07;18.47;;;8.20;21.10;;;;;;4984029;28;20483;-79
2024/03/09 02:34:25;;;;;;;20.20;18.80;;;8.30;21.20;;;;;;4986194;28;20453;-79
2024/03/09 02:36:52;;;;;;;20.40;19.00;;;8.30;21.20;;;;;;4979098;28;20572;-79
2024/03/09 02:39:17;;;;;;;20.43;18.90;;;8.50;20.90;;;;;;4978984;28;20458;-77
2024/03/09 02:41:43;;;;;;;21.37;19.70;;;8.50;19.90;;;;;;4978682;28;20517;-79
2024/03/09 02:44:13;;;;;;;21.30;19.80;;;8.60;20.30;;;;;;4979556;28;20190;-79
2024/03/09 02:46:39;;;;;;;20.67;19.13;;;8.70;19.90;;;;;;4989325;28;20473;-78
2024/03/09 02:49:05;;;;;;;21.03;19.47;;;8.90;19.50;;;;;;4980277;28;20469;-79
2024/03/09 02:51:32;;;;;;;22.13;20.33;;;9.10;19.10;;;;;;4978385;28;20899;-79
2024/03/09 02:53:58;;;;;;;20.73;19.13;;;9.20;18.70;;;;;;4978905;28;20194;-79
2024/03/09 02:56:27;;;;;;;21.00;19.47;;;9.40;18.60;;;;;;4977595;28;20436;-79
2024/03/09 02:58:53;;;;;;;21.03;19.53;;;9.40;18.70;;;;;;4979188;28;20470;-79
2024/03/09 03:01:20;;;;;;;21.53;19.83;;;9.40;18.70;;;;;;4977475;28;20500;-79
2024/03/09 03:06:18;;;;;;;21.33;19.63;;;9.40;18.60;;;;;;4976968;28;20492;-78
2024/03/09 03:08:45;;;;;;;21.70;19.73;;;9.40;18.40;;;;;;4977124;28;20846;-79
2024/03/09 03:11:16;;;;;;;19.40;17.90;;;9.50;18.60;;;;;;4982091;28;20440;-78
2024/03/09 03:13:44;;;;;;;20.43;18.73;;;9.50;18.70;;;;;;4979005;28;20517;-78
2024/03/09 03:16:13;;;;;;;19.50;18.17;;;9.50;18.50;;;;;;4975786;28;20445;-78
2024/03/09 03:18:38;;;;;;;21.40;19.60;;;9.50;18.50;;;;;;4978256;28;20469;-78
2024/03/09 03:21:05;;;;;;;22.60;20.70;;;9.50;18.50;;;;;;5018748;23;20840;-83
2024/03/09 03:23:31;;;;;;;20.40;18.90;;;9.40;18.40;;;;;;4993959;28;20186;-83
2024/03/09 03:25:56;;;;;;;20.03;18.63;;;9.30;18.90;;;;;;5000160;28;20830;-83
2024/03/09 03:28:22;;;;;;;22.00;20.40;;;9.30;18.80;;;;;;5003216;28;20904;-83
2024/03/09 03:30:47;;;;;;;21.93;20.30;;;9.10;18.90;;;;;;4998379;28;20629;-83
2024/03/09 03:33:13;;;;;;;22.60;20.60;;;8.90;20.30;;;;;;4995885;28;20253;-83
2024/03/09 03:35:39;;;;;;;21.53;19.93;;;8.90;19.70;;;;;;4995666;28;20575;-81
2024/03/09 03:38:06;;;;;;;21.93;20.43;;;8.90;19.70;;;;;;4995138;28;20245;-82
2024/03/09 03:40:31;;;;;;;21.50;19.73;;;9.00;19.60;;;;;;4996390;28;20449;-80
2024/03/09 03:42:57;;;;;;;21.23;19.67;;;9.10;19.50;;;;;;4994852;28;20419;-83
2024/03/09 03:45:23;;;;;;;21.80;20.10;;;9.20;19.10;;;;;;4996393;28;20515;-83
2024/03/09 03:47:49;;;;;;;21.00;19.40;;;9.20;18.90;;;;;;4995360;28;20430;-83
2024/03/09 03:50:14;;;;;;;22.80;21.00;;;9.30;18.60;;;;;;4996050;28;20202;-80
2024/03/09 03:52:40;;;;;;;22.70;20.90;;;9.30;18.40;;;;;;4996437;28;20272;-83
2024/03/09 03:55:11;;;;;;;19.77;18.37;;;9.30;18.50;;;;;;4997844;28;20649;-83
2024/03/09 03:57:38;;;;;;;22.67;20.97;;;9.40;18.60;;;;;;4998936;28;20483;-83
2024/03/09 04:00:05;;;;;;;22.20;20.57;;;9.30;18.60;;;;;;4998173;28;20444;-82
2024/03/09 04:02:33;;;;;;;23.27;21.47;;;9.30;19.50;;;;;;4998808;28;20460;-83
2024/03/09 04:04:59;;;;;;;22.00;20.00;;;9.10;20.70;;;;;;4997873;28;20439;-83
2024/03/09 04:07:25;;;;;;;24.47;22.30;;;8.70;21.70;;;;;;4998303;28;20441;-83
2024/03/09 04:09:50;;;;;;;21.73;20.10;;;8.40;22.30;;;;;;4998488;28;20209;-83
2024/03/09 04:12:17;;;;;;;21.20;19.50;;;8.40;22.90;;;;;;4998054;28;20639;-83
2024/03/09 04:14:43;;;;;;;22.10;20.50;;;8.50;23.00;;;;;;4998244;28;20182;-83
2024/03/09 04:17:10;;;;;;;23.10;21.30;;;8.40;23.10;;;;;;4997242;28;20948;-83
2024/03/09 04:19:36;;;;;;;21.73;20.13;;;8.50;23.00;;;;;;5005182;28;20241;-83
2024/03/09 04:22:02;;;;;;;21.90;20.20;;;8.60;22.40;;;;;;5006724;28;20451;-82
2024/03/09 04:24:28;;;;;;;21.37;19.77;;;8.90;21.90;;;;;;5003323;28;20428;-83
2024/03/09 04:26:53;;;;;;;23.37;21.37;;;8.90;22.00;;;;;;4999430;28;20595;-81
2024/03/09 04:29:21;;;;;;;22.60;21.00;;;9.00;21.90;;;;;;4999796;28;20217;-82
2024/03/09 04:31:47;;;;;;;22.77;21.07;;;9.20;21.00;;;;;;4997871;28;20300;-82
2024/03/09 04:34:12;;;;;;;21.50;19.80;;;9.40;20.60;;;;;;4999493;28;20476;-82
2024/03/09 04:36:38;;;;;;;23.17;21.40;;;9.50;19.90;;;;;;4997348;28;20182;-82
2024/03/09 04:39:03;;;;;;;23.10;21.33;;;9.60;19.40;;;;;;4997500;28;20189;-82
2024/03/09 04:41:32;;;;;;;22.77;21.00;;;9.70;19.20;;;;;;4996989;28;20244;-82
2024/03/09 04:43:57;;;;;;;20.57;18.93;;;9.80;18.80;;;;;;4997149;28;20226;-82
2024/03/09 04:46:23;;;;;;;20.63;19.13;;;9.80;18.90;;;;;;4998101;28;20862;-82
2024/03/09 04:48:48;;;;;;;21.37;19.83;;;9.90;18.90;;;;;;4996554;28;20623;-82
2024/03/09 04:51:14;;;;;;;22.90;20.90;;;9.90;18.70;;;;;;4997510;28;20586;-82
2024/03/09 04:53:41;;;;;;;22.73;20.83;;;9.70;19.30;;;;;;4998316;28;20186;-82
2024/03/09 04:56:07;;;;;;;23.10;21.40;;;9.60;19.80;;;;;;4998614;28;20410;-82
2024/03/09 04:58:32;;;;;;;22.37;20.70;;;9.50;19.80;;;;;;4998723;28;20888;-82
2024/03/09 05:00:57;;;;;;;21.03;19.43;;;9.50;20.60;;;;;;4996825;28;20914;-81
2024/03/09 05:03:23;;;;;;;21.53;19.83;;;9.50;20.10;;;;;;5002740;28;20193;-81
2024/03/09 05:05:49;;;;;;;21.93;20.23;;;9.60;19.90;;;;;;5015163;28;20252;-82
2024/03/09 05:08:14;;;;;;;22.20;20.40;;;9.60;20.40;;;;;;5017379;28;20198;-81
2024/03/09 05:10:40;;;;;;;21.30;19.60;;;9.50;20.90;;;;;;5017756;28;20230;-81
2024/03/09 05:13:08;;;;;;;21.50;19.90;;;9.30;21.00;;;;;;5016595;28;20193;-81
2024/03/09 05:15:35;;;;;;;20.70;19.30;;;9.20;21.10;;;;;;4996645;28;20269;-81
2024/03/09 05:18:02;;;;;;;21.40;19.90;;;9.20;21.00;;;;;;4995554;28;20433;-81
2024/03/09 05:20:29;;;;;;;20.93;19.50;;;9.20;20.80;;;;;;4995668;28;20457;-82
2024/03/09 05:23:06;;;;;;;20.77;19.07;;;9.30;20.80;;;;;;4995934;28;20441;-82
2024/03/09 05:25:32;;;;;;;21.10;19.40;;;9.40;20.60;;;;;;4998415;28;20943;-81
2024/03/09 05:27:58;;;;;;;21.10;19.73;;;9.00;21.90;;;;;;4998763;28;20524;-81
2024/03/09 05:30:27;;;;;;;22.17;20.57;;;8.30;23.20;;;;;;4996118;28;20198;-81
2024/03/09 05:32:53;;;;;;;21.07;19.73;;;8.10;24.00;;;;;;4994638;28;20516;-82
2024/03/09 05:35:26;;;;;;;22.37;20.77;;;8.00;24.30;;;;;;4994385;28;20514;-81
2024/03/09 05:37:51;;;;;;;23.17;21.47;;;7.90;24.60;;;;;;4994141;28;20189;-82
2024/03/09 05:40:18;;;;;;;24.67;22.77;;;7.80;24.70;;;;;;4994055;28;20457;-81
2024/03/09 05:42:44;;;;;;;23.03;21.40;;;7.60;26.20;;;;;;4993755;28;20190;-82
2024/03/09 05:45:18;;;;;;;23.00;21.40;;;7.40;25.80;;;;;;4995164;28;20433;-81
2024/03/09 05:47:47;;;;;;;24.03;22.10;;;7.40;25.80;;;;;;4995534;28;20429;-82
2024/03/09 05:50:15;;;;;;;22.37;20.83;;;7.20;25.10;;;;;;4993959;28;20914;-81
2024/03/09 05:52:42;;;;;;;25.03;23.13;;;7.10;25.60;;;;;;4995095;28;20425;-81
2024/03/09 05:55:08;;;;;;;23.10;21.20;;;7.10;25.90;;;;;;4994878;28;20425;-81
2024/03/09 05:57:34;;;;;;;25.20;23.43;;;7.20;25.80;;;;;;4995434;28;21081;-81
2024/03/09 05:59:59;;;;;;;24.97;23.17;;;7.30;25.00;;;;;;4994534;28;20577;-81
2024/03/09 06:02:25;;;;;;;22.80;21.20;;;7.50;25.10;;;;;;4993993;28;20194;-81
2024/03/09 06:04:50;;;;;;;23.47;21.87;;;7.60;24.40;;;;;;4993376;28;20527;-81
2024/03/09 06:07:16;;;;;;;22.73;21.13;;;7.70;24.00;;;;;;4993409;28;20267;-81
2024/03/09 06:09:41;;;;;;;22.90;21.30;;;7.80;23.20;;;;;;4993277;28;20413;-81
2024/03/09 06:12:07;;;;;;;23.27;21.63;;;8.00;22.70;;;;;;4992711;28;20212;-82
2024/03/09 06:14:32;;;;;;;24.37;22.57;;;8.10;22.70;;;;;;4994260;28;20556;-81
2024/03/09 06:16:58;;;;;;;23.20;21.50;;;8.20;22.70;;;;;;4993168;28;20196;-81
2024/03/09 06:19:23;;;;;;;22.47;20.97;;;8.20;22.50;;;;;;4993734;28;20265;-81
2024/03/09 06:21:51;;;;;;;22.07;20.27;;;8.20;21.70;;;;;;4990115;28;20186;-81
2024/03/09 06:24:17;;;;;;;23.07;21.37;;;8.10;21.90;;;;;;4990559;28;20241;-85
2024/03/09 06:26:43;;;;;;;23.53;21.93;;;8.00;22.60;;;;;;4987818;28;20876;-81
2024/03/09 06:29:10;;;;;;;21.93;20.47;;;7.90;22.60;;;;;;4989735;28;20182;-81
2024/03/09 06:31:36;;;;;;;23.63;22.03;;;8.00;22.70;;;;;;4993245;28;20178;-81
2024/03/09 06:34:02;;;;;;;22.63;21.03;;;7.90;22.60;;;;;;4992872;28;20429;-80
2024/03/09 06:36:28;;;;;;;24.03;22.13;;;7.80;22.80;;;;;;4993213;28;20182;-81
2024/03/09 06:38:55;;;;;;;23.00;21.30;;;7.80;23.00;;;;;;4992649;28;20505;-80
2024/03/09 06:41:20;;;;;;;23.30;21.57;;;8.00;22.70;;;;;;4994044;28;20445;-82
2024/03/09 06:43:46;;;;;;;23.37;21.73;;;7.80;22.60;;;;;;4991766;28;20486;-83
2024/03/09 06:46:11;;;;;;;25.00;23.20;;;7.70;22.50;;;;;;4992685;28;20205;-83
2024/03/09 06:48:37;;;;;;;23.57;21.87;;;7.50;23.60;;;;;;4992546;28;20185;-83
2024/03/09 06:51:06;;;;;;;24.83;22.93;;;7.40;24.20;;;;;;4991553;28;20206;-82
2024/03/09 06:53:43;;;;;;;23.17;21.50;;;7.30;23.80;;;;;;4993557;28;20500;-83
2024/03/09 06:56:10;;;;;;;24.07;22.27;;;7.30;24.60;;;;;;4992956;28;20790;-82
2024/03/09 06:58:36;;;;;;;24.30;22.40;;;7.30;24.10;;;;;;4992289;28;20433;-82
2024/03/09 07:01:03;;;;;;;24.10;22.17;;;7.30;23.90;;;;;;4993848;28;20461;-82
2024/03/09 07:03:29;;;;;;;23.70;21.90;;;7.30;23.60;;;;;;4991884;28;20433;-82
2024/03/09 07:05:54;;;;;;;23.97;22.20;;;7.30;24.00;;;;;;4992109;28;20472;-82
2024/03/09 07:08:21;;;;;;;24.23;22.50;;;7.20;23.80;;;;;;4993306;28;20190;-81
2024/03/09 07:10:47;;;;;;;25.60;23.70;;;7.20;24.40;;;;;;4992533;28;20296;-82
2024/03/09 07:13:12;;;;;;;23.70;22.00;;;7.10;24.40;;;;;;4992528;28;20468;-82
2024/03/09 07:15:38;;;;;;;25.27;23.47;;;7.00;24.50;;;;;;4993660;28;20434;-82
2024/03/09 07:18:04;;;;;;;24.47;22.67;;;6.90;24.90;;;;;;4995325;28;20658;-82
2024/03/09 07:20:33;;;;;;;22.77;21.17;;;7.00;25.00;;;;;;4994017;28;20309;-82
2024/03/09 07:22:58;;;;;;;23.40;21.70;;;7.10;24.90;;;;;;4992041;28;20488;-82
2024/03/09 07:25:26;;;;;;;22.60;21.00;;;7.00;25.00;;;;;;4995555;28;20484;-83
2024/03/09 07:27:54;;;;;;;22.90;20.97;;;7.20;25.00;;;;;;4997368;28;20539;-83
2024/03/09 07:30:32;;;;;;;23.53;21.70;;;7.20;25.00;;;;;;4980325;28;20831;-82
2024/03/09 07:32:58;;;;;;;23.27;21.47;;;7.30;24.80;;;;;;4996976;28;20448;-82
2024/03/09 07:35:29;;;;;;;21.87;20.27;;;7.50;25.10;;;;;;4997192;28;20944;-82
2024/03/09 07:37:58;;;;;;;22.23;20.63;;;7.60;24.80;;;;;;4981461;28;20252;-82
2024/03/09 07:40:24;;;;;;;23.80;22.00;;;7.70;24.40;;;;;;4997468;28;20801;-82
2024/03/09 07:42:56;;;;;;;21.90;20.40;;;7.80;23.90;;;;;;4997137;28;20441;-82
2024/03/09 07:45:24;;;;;;;23.23;21.50;;;8.00;23.40;;;;;;4996565;28;21007;-82
2024/03/09 07:47:50;;;;;;;23.57;21.77;;;8.10;22.70;;;;;;4998461;28;20431;-81
2024/03/09 07:50:21;;;;;;;24.03;22.03;;;8.20;22.80;;;;;;4998701;28;20865;-81
2024/03/09 07:53:06;;;;;;;24.03;22.13;;;8.30;22.60;;;;;;4998760;28;20190;-82
2024/03/09 07:55:34;;;;;;;21.60;20.00;;;8.60;22.70;;;;;;4999440;28;20424;-82
2024/03/09 07:58:02;;;;;;;22.70;21.00;;;8.70;22.20;;;;;;4999726;28;20425;-83
2024/03/09 08:00:35;;;;;;;24.00;22.20;;;9.00;21.30;;;;;;4999516;28;20979;-82
2024/03/09 08:03:03;;;;;;;21.87;20.17;;;9.00;20.40;;;;;;4996121;28;20448;-82
2024/03/09 08:05:29;;;;;;;24.17;22.17;;;8.90;20.90;;;;;;4981433;28;20289;-82
2024/03/09 08:07:55;;;;;;;20.47;18.87;;;8.70;21.30;;;;;;4996296;28;20546;-80
2024/03/09 08:10:23;;;;;;;21.50;19.93;;;8.70;21.50;;;;;;4993277;28;20461;-81
2024/03/09 08:12:49;;;;;;;22.40;20.67;;;8.60;21.60;;;;;;4996060;28;20196;-82
2024/03/09 08:15:15;;;;;;;23.00;21.30;;;8.50;22.20;;;;;;4997711;28;20520;-81
2024/03/09 08:17:42;;;;;;;21.67;20.07;;;8.60;22.20;;;;;;4999153;28;20521;-81
2024/03/09 08:20:08;;;;;;;39.97;36.53;;;8.60;22.10;;;;;;4996533;28;20469;-81
2024/03/09 08:22:39;;;;;;;21.43;19.80;;;8.70;21.90;;;;;;4996444;28;20434;-81
2024/03/09 08:25:12;;;;;;;23.40;21.47;;;8.70;21.80;;;;;;4996321;28;20421;-81
2024/03/09 08:27:39;;;;;;;27.50;25.30;;;8.80;21.30;;;;;;4997048;28;20445;-81
2024/03/09 08:30:15;;;;;;;22.33;20.70;;;8.90;21.40;;;;;;4988771;28;20995;-81
2024/03/09 08:32:45;;;;;;;22.27;20.57;;;9.10;21.80;;;;;;4997589;28;20467;-81
2024/03/09 08:35:15;;;;;;;22.60;20.80;;;9.30;21.10;;;;;;4996144;28;20941;-81
2024/03/09 08:37:42;;;;;;;21.03;19.50;;;9.50;20.50;;;;;;4998211;28;20440;-81
2024/03/09 08:40:09;;;;;;;23.63;21.63;;;9.70;20.10;;;;;;4997323;28;20457;-81
2024/03/09 08:42:36;;;;;;;21.80;20.10;;;9.80;19.60;;;;;;4996395;28;20437;-81
2024/03/09 08:45:09;;;;;;;21.80;20.30;;;10.00;18.80;;;;;;4996044;28;20445;-81
2024/03/09 08:47:35;;;;;;;22.20;20.50;;;10.10;18.60;;;;;;4990418;28;20448;-81
2024/03/09 08:50:00;;;;;;;22.77;20.90;;;10.20;18.50;;;;;;4989474;28;20584;-80
2024/03/09 08:52:26;;;;;;;23.17;21.30;;;10.20;17.70;;;;;;4992745;28;20917;-80
2024/03/09 08:54:52;;;;;;;21.80;20.13;;;10.20;18.10;;;;;;4994538;28;20533;-80
2024/03/09 08:57:17;;;;;;;23.77;21.90;;;10.20;17.80;;;;;;4987492;28;20194;-80
2024/03/09 08:59:48;;;;;;;22.17;20.63;;;10.30;18.10;;;;;;4995678;28;20460;-80
2024/03/09 09:02:14;;;;;;;22.60;20.90;;;10.40;17.80;;;;;;4994628;28;20248;-80
2024/03/09 09:04:40;;;;;;;19.03;17.67;;;10.50;17.40;;;;;;4997661;28;20429;-80
2024/03/09 09:07:05;;;;;;;22.87;20.97;;;10.60;17.00;;;;;;4998520;28;20495;-80
2024/03/09 09:09:31;;;;;;;22.60;21.00;;;10.50;16.70;;;;;;4996879;28;20326;-80
2024/03/09 09:11:58;;;;;;;22.17;20.47;;;10.50;16.90;;;;;;4995578;28;20178;-81
2024/03/09 09:14:24;;;;;;;22.10;20.40;;;10.50;17.40;;;;;;4995453;28;20602;-81
2024/03/09 09:16:49;;;;;;;21.80;20.13;;;10.40;17.10;;;;;;4995026;28;20444;-81
2024/03/09 09:19:15;;;;;;;22.97;21.07;;;10.40;17.70;;;;;;4995837;28;20280;-80
2024/03/09 09:21:41;;;;;;;23.20;21.27;;;10.40;17.40;;;;;;4994949;28;20570;-81
2024/03/09 09:24:16;;;;;;;21.90;20.27;;;10.40;17.60;;;;;;4994542;28;20917;-80
2024/03/09 09:26:43;;;;;;;23.37;21.57;;;10.40;17.50;;;;;;4994564;28;20216;-80
2024/03/09 09:29:10;;;;;;;22.07;20.27;;;10.40;17.60;;;;;;4994555;28;20849;-81
2024/03/09 09:31:41;;;;;;;21.57;19.90;;;10.50;17.40;;;;;;4994833;28;20422;-80
2024/03/09 09:34:10;;;;;;;22.27;20.53;;;10.70;17.20;;;;;;4996514;28;20825;-79
2024/03/09 09:36:38;;;;;;;20.33;18.93;;;10.90;17.10;;;;;;4996067;28;20532;-80
2024/03/09 09:39:04;;;;;;;22.30;20.70;;;11.10;16.70;;;;;;4995893;28;20437;-80
2024/03/09 09:41:30;;;;;;;20.70;19.17;;;11.40;16.20;;;;;;4995146;28;20495;-81
2024/03/09 09:43:58;;;;;;;21.77;19.97;;;11.70;16.00;;;;;;4993237;28;20200;-82
2024/03/09 09:46:26;;;;;;;22.20;20.40;;;12.00;16.00;;;;;;4993420;28;20468;-81
2024/03/09 09:48:54;;;;;;;21.00;19.40;;;12.10;14.90;;;;;;4994330;28;20486;-80
2024/03/09 09:51:26;;;;;;;20.07;18.47;;;12.30;14.90;;;;;;4993143;28;20808;-81
2024/03/09 09:53:53;;;;;;;20.90;19.30;;;12.50;14.70;;;;;;4994361;28;20496;-80
2024/03/09 09:56:20;;;;;;;21.17;19.47;;;12.70;13.50;;;;;;4994242;28;21012;-80
2024/03/09 09:58:49;;;;;;;20.67;18.97;;;12.70;14.00;;;;;;4995664;28;20441;-80
2024/03/09 10:01:21;;;;;;;21.33;19.63;;;12.80;13.70;;;;;;4994666;28;20693;-80
2024/03/09 10:03:47;;;;;;;21.70;20.00;;;12.90;13.60;;;;;;4993906;28;20448;-80
2024/03/09 10:06:21;;;;;;;19.83;18.23;;;13.00;13.10;;;;;;4994425;28;20508;-80
2024/03/09 10:08:48;;;;;;;17.33;16.03;;;12.90;13.00;;;;;;4993376;28;20442;-80
2024/03/09 10:11:15;;;;;;;17.77;16.40;;;12.80;13.30;;;;;;4992580;28;20453;-82
2024/03/09 10:13:41;;;;;;;19.63;18.10;;;12.80;13.30;;;;;;4992551;28;21025;-81
2024/03/09 10:16:07;;;;;;;15.70;14.50;;;12.70;13.00;;;;;;4994546;28;20557;-80
2024/03/09 10:18:32;;;;;;;15.60;14.47;;;12.70;13.00;;;;;;4993372;28;20520;-80
2024/03/09 10:20:58;;;;;;;14.47;13.47;;;12.70;12.40;;;;;;4994134;28;20758;-81
2024/03/09 10:23:24;;;;;;;15.17;14.07;;;12.80;12.00;;;;;;4992327;28;20952;-81
2024/03/09 10:25:49;;;;;;;15.00;13.90;;;12.90;11.70;;;;;;4993583;28;20452;-80
2024/03/09 10:28:21;;;;;;;18.10;16.53;;;13.00;11.50;;;;;;4993699;28;20677;-82
2024/03/09 10:30:47;;;;;;;17.57;16.17;;;13.20;12.20;;;;;;4979700;28;20206;-81
2024/03/09 10:33:16;;;;;;;19.17;17.53;;;13.40;11.80;;;;;;4993287;28;20432;-80
2024/03/09 10:35:45;;;;;;;18.70;17.23;;;13.50;11.80;;;;;;4993743;28;20823;-80
2024/03/09 10:38:12;;;;;;;19.03;17.53;;;13.60;11.20;;;;;;4994719;28;20479;-81
2024/03/09 10:40:38;;;;;;;18.13;16.83;;;13.70;11.20;;;;;;4993606;28;20933;-82
2024/03/09 10:43:13;;;;;;;18.33;17.03;;;13.80;11.50;;;;;;4992263;28;20495;-80
2024/03/09 10:45:40;;;;;;;18.43;16.77;;;14.10;11.00;;;;;;4993542;28;20578;-81
2024/03/09 10:48:09;;;;;;;17.60;16.20;;;14.20;10.40;;;;;;4993464;28;20460;-80
2024/03/09 10:50:42;;;;;;;18.63;17.23;;;14.30;10.60;;;;;;4993269;28;20453;-81
2024/03/09 10:53:09;;;;;;;18.80;17.40;;;14.30;10.40;;;;;;4993606;28;20420;-81
2024/03/09 10:55:53;;;;;;;18.90;17.40;;;14.40;10.40;;;;;;4994533;28;20909;-80
2024/03/09 10:58:25;;;;;;;19.20;17.80;;;14.50;9.80;;;;;;4995186;28;20193;-80
2024/03/09 11:00:52;;;;;;;20.30;18.80;;;14.60;9.60;;;;;;4996680;28;20444;-80
2024/03/09 11:03:25;;;;;;;17.80;16.50;;;14.60;9.70;;;;;;4997716;28;20444;-80
2024/03/09 11:05:55;;;;;;;18.60;17.20;;;14.70;9.70;;;;;;4999744;28;20457;-81
2024/03/09 11:08:22;;;;;;;18.83;17.43;;;14.80;9.50;;;;;;4999221;28;20604;-80
2024/03/09 11:10:48;;;;;;;18.50;17.13;;;14.80;9.50;;;;;;5003076;28;20449;-82
2024/03/09 11:13:19;;;;;;;19.13;17.60;;;14.90;9.60;;;;;;5002384;28;20425;-81
2024/03/09 11:15:51;;;;;;;18.70;17.30;;;14.80;9.50;;;;;;4999092;28;20428;-82
2024/03/09 11:18:23;;;;;;;20.00;18.33;;;14.70;9.50;;;;;;4998263;28;20964;-83
2024/03/09 11:20:52;;;;;;;17.67;16.37;;;14.50;9.80;;;;;;5002460;28;20479;-83
2024/03/09 11:23:30;;;;;;;19.27;17.90;;;14.60;10.10;;;;;;4998019;28;20433;-82
2024/03/09 11:25:58;;;;;;;17.40;16.20;;;14.60;10.30;;;;;;4999517;28;20484;-81
2024/03/09 11:28:47;;;;;;;19.47;18.07;;;14.70;9.50;;;;;;4999697;28;20413;-81
2024/03/09 11:31:34;;;;;;;17.97;16.67;;;14.70;9.50;;;;;;5018535;28;20456;-83
2024/03/09 11:34:13;;;;;;;17.80;16.60;;;14.70;9.50;;;;;;5012111;28;20417;-87
2024/03/09 11:36:51;;;;;;;17.10;15.90;;;14.60;9.90;;;;;;5020919;28;20409;-85
2024/03/09 11:39:44;;;;;;;19.00;17.23;;;14.40;10.00;;;;;;5020559;28;20413;-86
2024/03/09 11:42:12;;;;;;;18.00;16.37;;;14.40;10.80;;;;;;4993849;28;20651;-80
2024/03/09 11:44:38;;;;;;;18.53;17.07;;;14.40;11.10;;;;;;4996988;28;20476;-81
2024/03/09 11:47:05;;;;;;;18.03;16.67;;;14.30;11.10;;;;;;4995283;28;20944;-80
2024/03/09 11:49:33;;;;;;;18.23;17.03;;;14.50;10.90;;;;;;4996490;28;20468;-80
2024/03/09 11:52:00;;;;;;;18.30;16.90;;;14.50;10.60;;;;;;4995805;28;20428;-80
2024/03/09 11:54:29;;;;;;;18.30;17.00;;;14.50;9.80;;;;;;4995440;28;20405;-81
2024/03/09 11:56:58;;;;;;;16.23;14.93;;;14.60;10.70;;;;;;4995991;28;20422;-80
2024/03/09 11:59:25;;;;;;;16.03;14.83;;;14.60;10.20;;;;;;4994300;28;20810;-80
2024/03/09 12:02:03;;;;;;;16.10;14.90;;;14.60;10.30;;;;;;4995041;28;20421;-81
2024/03/09 12:04:32;;;;;;;15.30;14.30;;;14.70;9.60;;;;;;4989193;28;20972;-81
2024/03/09 12:06:59;;;;;;;16.13;14.93;;;14.70;9.70;;;;;;4997473;28;20465;-80
2024/03/09 12:09:24;;;;;;;15.33;14.33;;;14.70;9.50;;;;;;4998341;28;20520;-81
2024/03/09 12:11:50;;;;;;;13.37;12.53;;;14.70;9.50;;;;;;4997621;28;20867;-83
2024/03/09 12:14:16;;;;;;;13.63;12.70;;;14.70;9.50;;;;;;4999383;28;20193;-83
2024/03/09 12:16:43;;;;;;;13.07;12.10;;;14.70;9.50;;;;;;5000532;28;20220;-81
2024/03/09 12:19:17;;;;;;;12.93;11.93;;;14.80;9.50;;;;;;5000189;28;20429;-83
2024/03/09 12:21:44;;;;;;;13.13;12.13;;;14.90;9.10;;;;;;4981765;28;20436;-81
2024/03/09 12:24:12;;;;;;;13.90;13.00;;;14.90;9.40;;;;;;5000124;28;20417;-81
2024/03/09 12:26:38;;;;;;;11.80;11.00;;;14.90;9.60;;;;;;4998476;28;20453;-81
2024/03/09 12:29:05;;;;;;;13.10;12.20;;;15.00;8.20;;;;;;5000621;28;20420;-81
2024/03/09 12:31:34;;;;;;;12.37;11.57;;;15.00;8.00;;;;;;5000666;28;20189;-83
2024/03/09 12:34:04;;;;;;;11.53;10.47;;;15.10;8.70;;;;;;4998769;28;20874;-81
2024/03/09 12:36:30;;;;;;;10.80;10.10;;;15.00;6.60;;;;;;4999116;28;20430;-81
2024/03/09 12:39:09;;;;;;;10.60;9.70;;;15.10;5.80;;;;;;5000114;28;20440;-81